sensor_id;sensor_type;location;lat;lon;timestamp;P1;durP1;ratioP1;P2;durP2;ratioP2
13319;SDS011;59599;47.608;12.190;2023-05-23T01:56:56;10.07;;;8.35;;
13319;SDS011;59599;47.608;12.190;2023-05-23T01:59:22;8.23;;;7.43;;
13319;SDS011;59599;47.608;12.190;2023-05-23T02:01:48;9.25;;;7.70;;
13319;SDS011;59599;47.608;12.190;2023-05-23T02:04:14;11.65;;;8.82;;
13319;SDS011;59599;47.608;12.190;2023-05-23T02:06:40;10.48;;;8.20;;
13319;SDS011;59599;47.608;12.190;2023-05-23T02:09:06;11.85;;;8.50;;
13319;SDS011;59599;47.608;12.190;2023-05-23T02:11:32;10.02;;;7.85;;
13319;SDS011;59599;47.608;12.190;2023-05-23T02:13:58;11.23;;;8.27;;
13319;SDS011;59599;47.608;12.190;2023-05-23T02:16:24;10.10;;;8.20;;
13319;SDS011;59599;47.608;12.190;2023-05-23T02:18:51;10.73;;;7.40;;
13319;SDS011;59599;47.608;12.190;2023-05-23T02:21:17;10.77;;;8.05;;
13319;SDS011;59599;47.608;12.190;2023-05-23T02:23:43;9.25;;;8.25;;
13319;SDS011;59599;47.608;12.190;2023-05-23T02:26:09;10.70;;;8.40;;
13319;SDS011;59599;47.608;12.190;2023-05-23T02:28:35;12.30;;;8.52;;
13319;SDS011;59599;47.608;12.190;2023-05-23T02:31:01;14.00;;;7.97;;
13319;SDS011;59599;47.608;12.190;2023-05-23T02:33:27;10.27;;;9.10;;
13319;SDS011;59599;47.608;12.190;2023-05-23T02:35:53;9.70;;;8.68;;
13319;SDS011;59599;47.608;12.190;2023-05-23T02:38:19;10.27;;;8.25;;
13319;SDS011;59599;47.608;12.190;2023-05-23T02:40:45;10.02;;;8.38;;
13319;SDS011;59599;47.608;12.190;2023-05-23T02:43:11;8.88;;;7.97;;
13319;SDS011;59599;47.608;12.190;2023-05-23T02:45:37;11.35;;;8.25;;
13319;SDS011;59599;47.608;12.190;2023-05-23T02:48:03;10.00;;;8.32;;
13319;SDS011;59599;47.608;12.190;2023-05-23T02:50:29;11.32;;;8.93;;
13319;SDS011;59599;47.608;12.190;2023-05-23T02:52:55;10.95;;;8.90;;
13319;SDS011;59599;47.608;12.190;2023-05-23T02:55:21;11.93;;;9.52;;
13319;SDS011;59599;47.608;12.190;2023-05-23T02:57:47;10.60;;;8.93;;
13319;SDS011;59599;47.608;12.190;2023-05-23T03:00:13;13.13;;;9.00;;
13319;SDS011;59599;47.608;12.190;2023-05-23T03:02:39;12.93;;;8.87;;
13319;SDS011;59599;47.608;12.190;2023-05-23T03:05:05;12.15;;;8.57;;
13319;SDS011;59599;47.608;12.190;2023-05-23T03:07:31;9.40;;;8.50;;
13319;SDS011;59599;47.608;12.190;2023-05-23T03:09:58;13.63;;;8.68;;
13319;SDS011;59599;47.608;12.190;2023-05-23T03:12:24;9.05;;;8.15;;
13319;SDS011;59599;47.608;12.190;2023-05-23T03:14:50;11.43;;;9.20;;
13319;SDS011;59599;47.608;12.190;2023-05-23T03:17:16;12.00;;;8.18;;
13319;SDS011;59599;47.608;12.190;2023-05-23T03:19:42;10.35;;;9.35;;
13319;SDS011;59599;47.608;12.190;2023-05-23T03:22:08;11.68;;;8.75;;
13319;SDS011;59599;47.608;12.190;2023-05-23T03:24:33;14.00;;;9.75;;
13319;SDS011;59599;47.608;12.190;2023-05-23T03:26:59;9.25;;;7.90;;
13319;SDS011;59599;47.608;12.190;2023-05-23T03:29:25;10.00;;;7.97;;
13319;SDS011;59599;47.608;12.190;2023-05-23T03:31:51;10.18;;;8.52;;
13319;SDS011;59599;47.608;12.190;2023-05-23T03:34:17;13.02;;;8.60;;
13319;SDS011;59599;47.608;12.190;2023-05-23T03:36:43;9.35;;;8.30;;
13319;SDS011;59599;47.608;12.190;2023-05-23T03:39:09;12.18;;;8.23;;
13319;SDS011;59599;47.608;12.190;2023-05-23T03:41:35;12.47;;;8.87;;
13319;SDS011;59599;47.608;12.190;2023-05-23T03:44:00;15.23;;;8.00;;
13319;SDS011;59599;47.608;12.190;2023-05-23T03:46:27;8.60;;;7.70;;
13319;SDS011;59599;47.608;12.190;2023-05-23T03:48:53;10.77;;;8.20;;
13319;SDS011;59599;47.608;12.190;2023-05-23T03:51:19;8.97;;;8.03;;
13319;SDS011;59599;47.608;12.190;2023-05-23T03:53:45;10.25;;;8.20;;
13319;SDS011;59599;47.608;12.190;2023-05-23T03:56:11;9.77;;;7.63;;
13319;SDS011;59599;47.608;12.190;2023-05-23T03:58:37;9.53;;;8.17;;
13319;SDS011;59599;47.608;12.190;2023-05-23T04:01:03;9.05;;;7.88;;
13319;SDS011;59599;47.608;12.190;2023-05-23T04:03:29;9.55;;;8.48;;
13319;SDS011;59599;47.608;12.190;2023-05-23T04:05:57;9.27;;;8.37;;
13319;SDS011;59599;47.608;12.190;2023-05-23T04:08:23;9.52;;;8.52;;
13319;SDS011;59599;47.608;12.190;2023-05-23T04:10:49;11.83;;;8.93;;
13319;SDS011;59599;47.608;12.190;2023-05-23T04:13:15;10.05;;;8.13;;
13319;SDS011;59599;47.608;12.190;2023-05-23T04:15:41;10.18;;;9.05;;
13319;SDS011;59599;47.608;12.190;2023-05-23T04:18:07;10.53;;;8.40;;
13319;SDS011;59599;47.608;12.190;2023-05-23T04:20:33;10.10;;;8.67;;
13319;SDS011;59599;47.608;12.190;2023-05-23T04:22:59;9.23;;;8.33;;
13319;SDS011;59599;47.608;12.190;2023-05-23T04:25:25;10.90;;;8.68;;
13319;SDS011;59599;47.608;12.190;2023-05-23T04:27:51;9.23;;;8.05;;
13319;SDS011;59599;47.608;12.190;2023-05-23T04:30:18;9.95;;;8.95;;
13319;SDS011;59599;47.608;12.190;2023-05-23T04:32:44;10.00;;;9.00;;
13319;SDS011;59599;47.608;12.190;2023-05-23T04:35:11;10.80;;;9.32;;
13319;SDS011;59599;47.608;12.190;2023-05-23T04:37:38;10.23;;;8.73;;
13319;SDS011;59599;47.608;12.190;2023-05-23T04:40:04;10.40;;;8.40;;
13319;SDS011;59599;47.608;12.190;2023-05-23T04:42:31;10.00;;;8.98;;
13319;SDS011;59599;47.608;12.190;2023-05-23T04:44:57;11.95;;;9.63;;
13319;SDS011;59599;47.608;12.190;2023-05-23T04:47:26;10.70;;;8.97;;
13319;SDS011;59599;47.608;12.190;2023-05-23T04:49:53;10.75;;;9.50;;
13319;SDS011;59599;47.608;12.190;2023-05-23T04:52:19;10.57;;;9.48;;
13319;SDS011;59599;47.608;12.190;2023-05-23T04:54:45;10.27;;;9.23;;
13319;SDS011;59599;47.608;12.190;2023-05-23T04:57:12;11.52;;;9.48;;
13319;SDS011;59599;47.608;12.190;2023-05-23T04:59:38;12.40;;;9.32;;
13319;SDS011;59599;47.608;12.190;2023-05-23T05:02:06;13.13;;;10.30;;
13319;SDS011;59599;47.608;12.190;2023-05-23T05:04:33;11.73;;;10.53;;
13319;SDS011;59599;47.608;12.190;2023-05-23T05:06:59;10.83;;;9.73;;
13319;SDS011;59599;47.608;12.190;2023-05-23T05:09:27;12.13;;;10.70;;
13319;SDS011;59599;47.608;12.190;2023-05-23T05:11:54;11.13;;;9.97;;
13319;SDS011;59599;47.608;12.190;2023-05-23T05:14:19;11.63;;;10.23;;
13319;SDS011;59599;47.608;12.190;2023-05-23T05:16:45;13.03;;;10.37;;
13319;SDS011;59599;47.608;12.190;2023-05-23T05:19:12;13.43;;;11.18;;
13319;SDS011;59599;47.608;12.190;2023-05-23T05:21:38;12.82;;;11.23;;
13319;SDS011;59599;47.608;12.190;2023-05-23T05:24:04;12.13;;;10.93;;
13319;SDS011;59599;47.608;12.190;2023-05-23T05:26:33;15.77;;;11.07;;
13319;SDS011;59599;47.608;12.190;2023-05-23T05:29:00;12.85;;;11.02;;
13319;SDS011;59599;47.608;12.190;2023-05-23T05:31:26;15.90;;;11.47;;
13319;SDS011;59599;47.608;12.190;2023-05-23T05:33:53;12.35;;;11.15;;
13319;SDS011;59599;47.608;12.190;2023-05-23T05:36:19;13.00;;;10.43;;
13319;SDS011;59599;47.608;12.190;2023-05-23T05:38:45;14.20;;;10.07;;
13319;SDS011;59599;47.608;12.190;2023-05-23T05:41:11;12.77;;;10.43;;
13319;SDS011;59599;47.608;12.190;2023-05-23T05:43:37;10.50;;;9.02;;
13319;SDS011;59599;47.608;12.190;2023-05-23T05:46:03;9.35;;;8.45;;
13319;SDS011;59599;47.608;12.190;2023-05-23T05:48:29;13.15;;;9.60;;
13319;SDS011;59599;47.608;12.190;2023-05-23T05:50:55;10.23;;;8.98;;
13319;SDS011;59599;47.608;12.190;2023-05-23T05:53:21;18.00;;;9.57;;
13319;SDS011;59599;47.608;12.190;2023-05-23T05:55:47;12.23;;;9.13;;
13319;SDS011;59599;47.608;12.190;2023-05-23T05:58:13;12.90;;;9.37;;
13319;SDS011;59599;47.608;12.190;2023-05-23T06:00:39;11.00;;;8.57;;
13319;SDS011;59599;47.608;12.190;2023-05-23T06:03:07;10.13;;;8.20;;
13319;SDS011;59599;47.608;12.190;2023-05-23T06:05:33;9.53;;;8.37;;
13319;SDS011;59599;47.608;12.190;2023-05-23T06:08:01;8.23;;;7.43;;
13319;SDS011;59599;47.608;12.190;2023-05-23T06:10:27;9.00;;;7.90;;
13319;SDS011;59599;47.608;12.190;2023-05-23T06:12:53;12.03;;;8.10;;
13319;SDS011;59599;47.608;12.190;2023-05-23T06:15:19;11.07;;;7.93;;
13319;SDS011;59599;47.608;12.190;2023-05-23T06:17:45;16.37;;;10.70;;
13319;SDS011;59599;47.608;12.190;2023-05-23T06:20:11;10.57;;;8.40;;
13319;SDS011;59599;47.608;12.190;2023-05-23T06:22:37;13.03;;;8.60;;
13319;SDS011;59599;47.608;12.190;2023-05-23T06:25:03;8.90;;;8.00;;
13319;SDS011;59599;47.608;12.190;2023-05-23T06:27:29;18.03;;;7.97;;
13319;SDS011;59599;47.608;12.190;2023-05-23T06:29:54;9.43;;;7.90;;
13319;SDS011;59599;47.608;12.190;2023-05-23T06:32:20;13.30;;;8.90;;
13319;SDS011;59599;47.608;12.190;2023-05-23T06:34:46;11.17;;;8.53;;
13319;SDS011;59599;47.608;12.190;2023-05-23T06:37:12;11.23;;;8.77;;
13319;SDS011;59599;47.608;12.190;2023-05-23T06:39:38;11.97;;;8.27;;
13319;SDS011;59599;47.608;12.190;2023-05-23T06:42:04;12.15;;;8.43;;
13319;SDS011;59599;47.608;12.190;2023-05-23T06:44:30;12.18;;;7.63;;
13319;SDS011;59599;47.608;12.190;2023-05-23T06:46:56;9.30;;;7.32;;
13319;SDS011;59599;47.608;12.190;2023-05-23T06:49:22;10.80;;;8.63;;
13319;SDS011;59599;47.608;12.190;2023-05-23T06:51:49;12.45;;;8.82;;
13319;SDS011;59599;47.608;12.190;2023-05-23T06:54:15;8.03;;;7.23;;
13319;SDS011;59599;47.608;12.190;2023-05-23T06:56:40;13.00;;;7.60;;
13319;SDS011;59599;47.608;12.190;2023-05-23T06:59:06;10.25;;;7.30;;
13319;SDS011;59599;47.608;12.190;2023-05-23T07:01:32;9.47;;;7.23;;
13319;SDS011;59599;47.608;12.190;2023-05-23T07:03:58;10.40;;;7.60;;
13319;SDS011;59599;47.608;12.190;2023-05-23T07:06:24;9.40;;;7.43;;
13319;SDS011;59599;47.608;12.190;2023-05-23T07:08:51;12.05;;;7.25;;
13319;SDS011;59599;47.608;12.190;2023-05-23T07:11:17;9.10;;;7.40;;
13319;SDS011;59599;47.608;12.190;2023-05-23T07:13:43;9.63;;;7.23;;
13319;SDS011;59599;47.608;12.190;2023-05-23T07:16:10;9.07;;;7.90;;
13319;SDS011;59599;47.608;12.190;2023-05-23T07:18:36;11.63;;;8.23;;
13319;SDS011;59599;47.608;12.190;2023-05-23T07:21:02;10.33;;;7.20;;
13319;SDS011;59599;47.608;12.190;2023-05-23T07:23:31;8.93;;;7.20;;
13319;SDS011;59599;47.608;12.190;2023-05-23T07:25:57;7.57;;;6.13;;
13319;SDS011;59599;47.608;12.190;2023-05-23T07:28:23;6.32;;;5.68;;
13319;SDS011;59599;47.608;12.190;2023-05-23T07:30:49;6.22;;;5.63;;
13319;SDS011;59599;47.608;12.190;2023-05-23T07:33:15;6.73;;;5.90;;
13319;SDS011;59599;47.608;12.190;2023-05-23T07:35:41;8.48;;;6.00;;
13319;SDS011;59599;47.608;12.190;2023-05-23T07:38:07;7.35;;;5.53;;
13319;SDS011;59599;47.608;12.190;2023-05-23T07:40:33;9.10;;;5.90;;
13319;SDS011;59599;47.608;12.190;2023-05-23T07:42:59;10.73;;;6.07;;
13319;SDS011;59599;47.608;12.190;2023-05-23T07:45:24;9.53;;;6.10;;
13319;SDS011;59599;47.608;12.190;2023-05-23T07:47:50;7.13;;;5.83;;
13319;SDS011;59599;47.608;12.190;2023-05-23T07:50:16;8.00;;;6.93;;
13319;SDS011;59599;47.608;12.190;2023-05-23T07:52:43;7.63;;;6.40;;
13319;SDS011;59599;47.608;12.190;2023-05-23T07:55:09;8.23;;;6.30;;
13319;SDS011;59599;47.608;12.190;2023-05-23T07:57:35;12.47;;;7.20;;
13319;SDS011;59599;47.608;12.190;2023-05-23T08:00:00;7.93;;;7.00;;
13319;SDS011;59599;47.608;12.190;2023-05-23T08:02:26;9.43;;;7.00;;
13319;SDS011;59599;47.608;12.190;2023-05-23T08:04:52;8.30;;;7.03;;
13319;SDS011;59599;47.608;12.190;2023-05-23T08:07:18;11.50;;;7.30;;
13319;SDS011;59599;47.608;12.190;2023-05-23T08:09:45;8.63;;;7.73;;
13319;SDS011;59599;47.608;12.190;2023-05-23T08:12:11;8.07;;;7.27;;
13319;SDS011;59599;47.608;12.190;2023-05-23T08:14:37;9.40;;;7.07;;
13319;SDS011;59599;47.608;12.190;2023-05-23T08:17:03;9.43;;;7.87;;
13319;SDS011;59599;47.608;12.190;2023-05-23T08:19:29;9.40;;;7.13;;
13319;SDS011;59599;47.608;12.190;2023-05-23T08:21:55;11.07;;;7.20;;
13319;SDS011;59599;47.608;12.190;2023-05-23T08:24:21;8.43;;;7.10;;
13319;SDS011;59599;47.608;12.190;2023-05-23T08:26:47;8.57;;;6.17;;
13319;SDS011;59599;47.608;12.190;2023-05-23T08:29:14;7.70;;;5.70;;
13319;SDS011;59599;47.608;12.190;2023-05-23T08:31:40;6.43;;;5.80;;
13319;SDS011;59599;47.608;12.190;2023-05-23T08:34:06;7.83;;;6.00;;
13319;SDS011;59599;47.608;12.190;2023-05-23T08:36:32;7.57;;;5.80;;
13319;SDS011;59599;47.608;12.190;2023-05-23T08:39:00;7.10;;;6.40;;
13319;SDS011;59599;47.608;12.190;2023-05-23T08:41:26;7.17;;;6.17;;
13319;SDS011;59599;47.608;12.190;2023-05-23T08:43:54;8.07;;;5.73;;
13319;SDS011;59599;47.608;12.190;2023-05-23T08:46:20;6.43;;;5.67;;
13319;SDS011;59599;47.608;12.190;2023-05-23T08:48:50;9.87;;;6.37;;
13319;SDS011;59599;47.608;12.190;2023-05-23T08:51:20;8.40;;;6.47;;
13319;SDS011;59599;47.608;12.190;2023-05-23T08:53:46;9.37;;;6.27;;
13319;SDS011;59599;47.608;12.190;2023-05-23T08:56:13;11.90;;;6.60;;
13319;SDS011;59599;47.608;12.190;2023-05-23T08:58:39;14.57;;;7.77;;
13319;SDS011;59599;47.608;12.190;2023-05-23T09:01:09;10.80;;;8.77;;
13319;SDS011;59599;47.608;12.190;2023-05-23T09:03:35;8.77;;;7.83;;
13319;SDS011;59599;47.608;12.190;2023-05-23T09:06:02;9.27;;;7.90;;
13319;SDS011;59599;47.608;12.190;2023-05-23T09:08:30;8.83;;;7.30;;
13319;SDS011;59599;47.608;12.190;2023-05-23T09:10:55;9.93;;;8.40;;
13319;SDS011;59599;47.608;12.190;2023-05-23T09:13:21;10.13;;;8.67;;
13319;SDS011;59599;47.608;12.190;2023-05-23T09:16:04;12.47;;;8.87;;
13319;SDS011;59599;47.608;12.190;2023-05-23T09:18:38;10.73;;;8.40;;
13319;SDS011;59599;47.608;12.190;2023-05-23T09:21:06;8.90;;;7.63;;
13319;SDS011;59599;47.608;12.190;2023-05-23T09:23:32;8.63;;;7.40;;
13319;SDS011;59599;47.608;12.190;2023-05-23T09:26:02;7.73;;;6.93;;
13319;SDS011;59599;47.608;12.190;2023-05-23T09:28:28;9.23;;;8.20;;
13319;SDS011;59599;47.608;12.190;2023-05-23T09:31:01;10.30;;;8.17;;
13319;SDS011;59599;47.608;12.190;2023-05-23T09:33:29;12.00;;;7.63;;
13319;SDS011;59599;47.608;12.190;2023-05-23T09:35:58;9.23;;;8.33;;
13319;SDS011;59599;47.608;12.190;2023-05-23T09:38:23;10.60;;;8.80;;
13319;SDS011;59599;47.608;12.190;2023-05-23T09:40:53;11.70;;;7.27;;
13319;SDS011;59599;47.608;12.190;2023-05-23T09:43:20;9.67;;;6.80;;
13319;SDS011;59599;47.608;12.190;2023-05-23T09:45:46;6.43;;;5.83;;
13319;SDS011;59599;47.608;12.190;2023-05-23T09:48:12;9.53;;;6.10;;
13319;SDS011;59599;47.608;12.190;2023-05-23T09:50:38;6.23;;;5.53;;
13319;SDS011;59599;47.608;12.190;2023-05-23T09:53:03;6.20;;;5.60;;
13319;SDS011;59599;47.608;12.190;2023-05-23T09:55:29;6.77;;;5.60;;
13319;SDS011;59599;47.608;12.190;2023-05-23T09:57:55;7.03;;;5.90;;
13319;SDS011;59599;47.608;12.190;2023-05-23T10:00:23;5.87;;;5.37;;
13319;SDS011;59599;47.608;12.190;2023-05-23T10:02:53;6.87;;;6.23;;
13319;SDS011;59599;47.608;12.190;2023-05-23T10:05:42;6.80;;;6.10;;
13319;SDS011;59599;47.608;12.190;2023-05-23T10:08:09;9.47;;;6.53;;
13319;SDS011;59599;47.608;12.190;2023-05-23T10:13:25;11.07;;;6.00;;
13319;SDS011;59599;47.608;12.190;2023-05-23T10:16:03;8.67;;;6.30;;
13319;SDS011;59599;47.608;12.190;2023-05-23T10:18:41;7.67;;;6.93;;
13319;SDS011;59599;47.608;12.190;2023-05-23T10:21:11;7.95;;;6.85;;
13319;SDS011;59599;47.608;12.190;2023-05-23T10:23:42;6.77;;;6.17;;
13319;SDS011;59599;47.608;12.190;2023-05-23T10:26:08;7.03;;;6.32;;
13319;SDS011;59599;47.608;12.190;2023-05-23T10:28:35;6.97;;;6.13;;
13319;SDS011;59599;47.608;12.190;2023-05-23T10:31:01;7.30;;;5.97;;
13319;SDS011;59599;47.608;12.190;2023-05-23T10:33:29;7.03;;;5.18;;
13319;SDS011;59599;47.608;12.190;2023-05-23T10:36:06;6.65;;;5.80;;
13319;SDS011;59599;47.608;12.190;2023-05-23T10:38:38;7.25;;;5.80;;
13319;SDS011;59599;47.608;12.190;2023-05-23T10:41:26;8.48;;;5.72;;
13319;SDS011;59599;47.608;12.190;2023-05-23T10:49:19;7.32;;;6.38;;
13319;SDS011;59599;47.608;12.190;2023-05-23T10:51:48;6.97;;;5.85;;
13319;SDS011;59599;47.608;12.190;2023-05-23T10:54:16;6.75;;;6.05;;
13319;SDS011;59599;47.608;12.190;2023-05-23T10:56:43;6.95;;;6.25;;
13319;SDS011;59599;47.608;12.190;2023-05-23T10:59:08;8.02;;;5.90;;
13319;SDS011;59599;47.608;12.190;2023-05-23T11:01:53;6.20;;;5.60;;
13319;SDS011;59599;47.608;12.190;2023-05-23T11:04:23;9.25;;;5.78;;
13319;SDS011;59599;47.608;12.190;2023-05-23T11:06:50;7.72;;;5.57;;
13319;SDS011;59599;47.608;12.190;2023-05-23T11:09:16;7.40;;;5.40;;
13319;SDS011;59599;47.608;12.190;2023-05-23T11:14:18;6.32;;;5.72;;
13319;SDS011;59599;47.608;12.190;2023-05-23T11:16:45;8.38;;;5.57;;
13319;SDS011;59599;47.608;12.190;2023-05-23T11:21:48;5.63;;;5.05;;
13319;SDS011;59599;47.608;12.190;2023-05-23T11:24:15;7.00;;;6.13;;
13319;SDS011;59599;47.608;12.190;2023-05-23T11:26:54;7.82;;;6.38;;
13319;SDS011;59599;47.608;12.190;2023-05-23T11:29:24;6.43;;;5.82;;
13319;SDS011;59599;47.608;12.190;2023-05-23T11:31:50;12.15;;;6.57;;
13319;SDS011;59599;47.608;12.190;2023-05-23T11:34:17;6.45;;;5.82;;
13319;SDS011;59599;47.608;12.190;2023-05-23T11:36:43;7.13;;;5.10;;
13319;SDS011;59599;47.608;12.190;2023-05-23T11:39:09;6.10;;;5.32;;
13319;SDS011;59599;47.608;12.190;2023-05-23T11:41:36;6.05;;;5.53;;
13319;SDS011;59599;47.608;12.190;2023-05-23T11:44:09;6.43;;;5.63;;
13319;SDS011;59599;47.608;12.190;2023-05-23T11:46:37;7.85;;;5.40;;
13319;SDS011;59599;47.608;12.190;2023-05-23T11:49:08;5.20;;;4.68;;
13319;SDS011;59599;47.608;12.190;2023-05-23T11:51:34;5.80;;;5.00;;
13319;SDS011;59599;47.608;12.190;2023-05-23T11:54:00;6.05;;;5.13;;
13319;SDS011;59599;47.608;12.190;2023-05-23T11:56:26;6.68;;;5.95;;
13319;SDS011;59599;47.608;12.190;2023-05-23T11:58:53;11.40;;;6.15;;
13319;SDS011;59599;47.608;12.190;2023-05-23T12:01:21;8.23;;;6.85;;
13319;SDS011;59599;47.608;12.190;2023-05-23T12:03:47;8.90;;;6.07;;
13319;SDS011;59599;47.608;12.190;2023-05-23T12:06:20;12.05;;;6.72;;
13319;SDS011;59599;47.608;12.190;2023-05-23T12:08:47;7.20;;;6.30;;
13319;SDS011;59599;47.608;12.190;2023-05-23T12:11:13;7.93;;;6.90;;
13319;SDS011;59599;47.608;12.190;2023-05-23T12:13:40;15.38;;;7.85;;
13319;SDS011;59599;47.608;12.190;2023-05-23T12:16:06;8.82;;;7.80;;
13319;SDS011;59599;47.608;12.190;2023-05-23T12:18:32;9.65;;;7.43;;
13319;SDS011;59599;47.608;12.190;2023-05-23T12:21:03;9.20;;;7.80;;
13319;SDS011;59599;47.608;12.190;2023-05-23T12:23:29;11.15;;;8.05;;
13319;SDS011;59599;47.608;12.190;2023-05-23T12:25:56;10.07;;;7.72;;
13319;SDS011;59599;47.608;12.190;2023-05-23T12:28:35;8.02;;;6.97;;
13319;SDS011;59599;47.608;12.190;2023-05-23T12:31:10;8.68;;;7.38;;
13319;SDS011;59599;47.608;12.190;2023-05-23T12:33:37;8.10;;;7.30;;
13319;SDS011;59599;47.608;12.190;2023-05-23T12:36:04;8.32;;;7.35;;
13319;SDS011;59599;47.608;12.190;2023-05-23T12:38:31;8.00;;;7.20;;
13319;SDS011;59599;47.608;12.190;2023-05-23T12:41:17;8.65;;;7.07;;
13319;SDS011;59599;47.608;12.190;2023-05-23T12:43:53;8.48;;;7.57;;
13319;SDS011;59599;47.608;12.190;2023-05-23T12:46:20;8.70;;;7.63;;
13319;SDS011;59599;47.608;12.190;2023-05-23T12:48:46;9.00;;;8.02;;
13319;SDS011;59599;47.608;12.190;2023-05-23T12:51:13;9.02;;;6.95;;
13319;SDS011;59599;47.608;12.190;2023-05-23T12:53:39;10.05;;;7.07;;
13319;SDS011;59599;47.608;12.190;2023-05-23T12:56:05;9.00;;;7.18;;
13319;SDS011;59599;47.608;12.190;2023-05-23T12:58:31;12.55;;;7.97;;
13319;SDS011;59599;47.608;12.190;2023-05-23T13:00:58;8.57;;;7.10;;
13319;SDS011;59599;47.608;12.190;2023-05-23T13:03:24;7.75;;;7.00;;
13319;SDS011;59599;47.608;12.190;2023-05-23T13:05:50;7.30;;;6.60;;
13319;SDS011;59599;47.608;12.190;2023-05-23T13:08:17;7.10;;;6.40;;
13319;SDS011;59599;47.608;12.190;2023-05-23T13:10:44;6.97;;;6.03;;
13319;SDS011;59599;47.608;12.190;2023-05-23T13:13:10;6.65;;;6.05;;
13319;SDS011;59599;47.608;12.190;2023-05-23T13:15:36;7.25;;;6.07;;
13319;SDS011;59599;47.608;12.190;2023-05-23T13:18:02;6.45;;;5.78;;
13319;SDS011;59599;47.608;12.190;2023-05-23T13:20:28;6.60;;;5.95;;
13319;SDS011;59599;47.608;12.190;2023-05-23T13:22:55;6.68;;;5.97;;
13319;SDS011;59599;47.608;12.190;2023-05-23T13:25:24;6.93;;;6.22;;
13319;SDS011;59599;47.608;12.190;2023-05-23T13:27:51;7.90;;;6.82;;
13319;SDS011;59599;47.608;12.190;2023-05-23T13:30:18;7.50;;;6.80;;
13319;SDS011;59599;47.608;12.190;2023-05-23T13:32:44;8.05;;;7.15;;
13319;SDS011;59599;47.608;12.190;2023-05-23T13:35:10;9.20;;;7.65;;
13319;SDS011;59599;47.608;12.190;2023-05-23T13:37:36;8.70;;;7.38;;
13319;SDS011;59599;47.608;12.190;2023-05-23T13:40:02;11.35;;;7.43;;
13319;SDS011;59599;47.608;12.190;2023-05-23T13:42:29;8.95;;;7.35;;
13319;SDS011;59599;47.608;12.190;2023-05-23T13:44:55;8.00;;;7.20;;
13319;SDS011;59599;47.608;12.190;2023-05-23T13:47:21;7.70;;;6.95;;
13319;SDS011;59599;47.608;12.190;2023-05-23T13:49:47;9.95;;;7.90;;
13319;SDS011;59599;47.608;12.190;2023-05-23T13:52:13;10.63;;;7.68;;
13319;SDS011;59599;47.608;12.190;2023-05-23T13:54:39;8.57;;;7.15;;
13319;SDS011;59599;47.608;12.190;2023-05-23T13:57:05;7.82;;;7.03;;
13319;SDS011;59599;47.608;12.190;2023-05-23T13:59:32;8.00;;;7.20;;
13319;SDS011;59599;47.608;12.190;2023-05-23T14:01:58;9.20;;;6.63;;
13319;SDS011;59599;47.608;12.190;2023-05-23T14:04:24;7.30;;;6.32;;
13319;SDS011;59599;47.608;12.190;2023-05-23T14:06:50;8.80;;;7.25;;
13319;SDS011;59599;47.608;12.190;2023-05-23T14:09:16;7.53;;;6.82;;
13319;SDS011;59599;47.608;12.190;2023-05-23T14:11:42;7.38;;;6.40;;
13319;SDS011;59599;47.608;12.190;2023-05-23T14:14:08;9.45;;;6.80;;
13319;SDS011;59599;47.608;12.190;2023-05-23T14:16:34;7.88;;;6.93;;
13319;SDS011;59599;47.608;12.190;2023-05-23T14:19:00;8.00;;;7.05;;
13319;SDS011;59599;47.608;12.190;2023-05-23T14:21:26;7.80;;;7.00;;
13319;SDS011;59599;47.608;12.190;2023-05-23T14:23:52;8.32;;;7.50;;
13319;SDS011;59599;47.608;12.190;2023-05-23T14:26:18;9.23;;;6.72;;
13319;SDS011;59599;47.608;12.190;2023-05-23T14:28:44;8.23;;;7.10;;
13319;SDS011;59599;47.608;12.190;2023-05-23T14:31:10;8.77;;;6.95;;
13319;SDS011;59599;47.608;12.190;2023-05-23T14:33:36;7.60;;;6.90;;
13319;SDS011;59599;47.608;12.190;2023-05-23T14:36:02;7.72;;;6.40;;
13319;SDS011;59599;47.608;12.190;2023-05-23T14:38:28;7.10;;;6.40;;
13319;SDS011;59599;47.608;12.190;2023-05-23T14:40:54;6.32;;;5.72;;
13319;SDS011;59599;47.608;12.190;2023-05-23T14:43:20;7.90;;;6.95;;
13319;SDS011;59599;47.608;12.190;2023-05-23T14:45:46;8.73;;;6.82;;
13319;SDS011;59599;47.608;12.190;2023-05-23T14:48:12;6.55;;;5.95;;
13319;SDS011;59599;47.608;12.190;2023-05-23T14:50:38;8.20;;;7.47;;
13319;SDS011;59599;47.608;12.190;2023-05-23T14:53:04;8.68;;;7.78;;
13319;SDS011;59599;47.608;12.190;2023-05-23T14:55:30;16.75;;;8.13;;
13319;SDS011;59599;47.608;12.190;2023-05-23T14:57:56;9.30;;;8.35;;
13319;SDS011;59599;47.608;12.190;2023-05-23T15:00:22;9.23;;;7.90;;
13319;SDS011;59599;47.608;12.190;2023-05-23T15:02:48;8.40;;;7.00;;
13319;SDS011;59599;47.608;12.190;2023-05-23T15:05:15;8.60;;;6.50;;
13319;SDS011;59599;47.608;12.190;2023-05-23T15:07:41;8.18;;;7.32;;
13319;SDS011;59599;47.608;12.190;2023-05-23T15:10:08;7.93;;;7.13;;
13319;SDS011;59599;47.608;12.190;2023-05-23T15:12:34;8.00;;;7.30;;
13319;SDS011;59599;47.608;12.190;2023-05-23T15:15:00;9.43;;;7.68;;
13319;SDS011;59599;47.608;12.190;2023-05-23T15:17:29;10.48;;;6.82;;
13319;SDS011;59599;47.608;12.190;2023-05-23T15:19:55;7.53;;;6.80;;
13319;SDS011;59599;47.608;12.190;2023-05-23T15:22:21;9.05;;;7.72;;
13319;SDS011;59599;47.608;12.190;2023-05-23T15:24:47;7.78;;;6.95;;
13319;SDS011;59599;47.608;12.190;2023-05-23T15:27:13;8.35;;;7.47;;
13319;SDS011;59599;47.608;12.190;2023-05-23T15:29:39;8.15;;;7.22;;
13319;SDS011;59599;47.608;12.190;2023-05-23T15:32:05;10.10;;;7.68;;
13319;SDS011;59599;47.608;12.190;2023-05-23T15:34:32;7.53;;;6.47;;
13319;SDS011;59599;47.608;12.190;2023-05-23T15:36:58;7.40;;;6.70;;
13319;SDS011;59599;47.608;12.190;2023-05-23T15:39:27;9.23;;;7.05;;
13319;SDS011;59599;47.608;12.190;2023-05-23T15:41:52;7.13;;;6.43;;
13319;SDS011;59599;47.608;12.190;2023-05-23T15:44:18;8.05;;;7.25;;
13319;SDS011;59599;47.608;12.190;2023-05-23T15:46:48;11.25;;;6.63;;
13319;SDS011;59599;47.608;12.190;2023-05-23T15:49:15;8.48;;;7.60;;
13319;SDS011;59599;47.608;12.190;2023-05-23T15:51:41;10.77;;;7.57;;
13319;SDS011;59599;47.608;12.190;2023-05-23T15:54:07;7.45;;;6.75;;
13319;SDS011;59599;47.608;12.190;2023-05-23T15:56:33;8.77;;;7.85;;
13319;SDS011;59599;47.608;12.190;2023-05-23T15:58:59;7.93;;;7.10;;
13319;SDS011;59599;47.608;12.190;2023-05-23T16:01:24;6.95;;;6.35;;
13319;SDS011;59599;47.608;12.190;2023-05-23T16:03:50;8.38;;;6.05;;
13319;SDS011;59599;47.608;12.190;2023-05-23T16:06:16;6.88;;;6.18;;
13319;SDS011;59599;47.608;12.190;2023-05-23T16:08:42;9.18;;;7.55;;
13319;SDS011;59599;47.608;12.190;2023-05-23T16:11:08;8.25;;;6.43;;
13319;SDS011;59599;47.608;12.190;2023-05-23T16:13:34;7.60;;;6.90;;
13319;SDS011;59599;47.608;12.190;2023-05-23T16:16:01;6.88;;;6.07;;
13319;SDS011;59599;47.608;12.190;2023-05-23T16:18:28;8.40;;;6.43;;
13319;SDS011;59599;47.608;12.190;2023-05-23T16:20:53;7.35;;;6.57;;
13319;SDS011;59599;47.608;12.190;2023-05-23T16:23:21;8.02;;;5.90;;
13319;SDS011;59599;47.608;12.190;2023-05-23T16:25:47;7.10;;;6.28;;
13319;SDS011;59599;47.608;12.190;2023-05-23T16:28:13;7.75;;;6.13;;
13319;SDS011;59599;47.608;12.190;2023-05-23T16:30:39;8.43;;;6.20;;
13319;SDS011;59599;47.608;12.190;2023-05-23T16:33:05;6.25;;;5.65;;
13319;SDS011;59599;47.608;12.190;2023-05-23T16:35:31;7.03;;;6.10;;